createdAt,value
2022-11-17T00:01:17.356Z,97283.38
2022-11-17T00:04:03.704Z,97276.47
2022-11-17T00:06:50.305Z,97278.22
2022-11-17T00:09:37.386Z,97279.00
2022-11-17T00:12:42.296Z,97266.25
2022-11-17T00:15:28.866Z,97261.97
2022-11-17T00:18:33.843Z,97266.25
2022-11-17T00:21:21.241Z,97285.25
2022-11-17T00:24:08.308Z,97295.22
2022-11-17T00:27:03.560Z,97283.78
2022-11-17T00:29:50.366Z,97294.31
2022-11-17T00:32:55.386Z,97289.75
2022-11-17T00:35:41.615Z,97281.59
2022-11-17T00:38:28.097Z,97286.59
2022-11-17T00:41:14.694Z,97208.50
2022-11-17T00:44:01.415Z,97196.44
2022-11-17T00:46:48.534Z,97265.16
2022-11-17T00:49:36.647Z,97274.50
2022-11-17T00:52:22.916Z,97255.69
2022-11-17T00:55:10.069Z,97260.69
2022-11-17T00:57:56.589Z,97223.81
2022-11-17T01:00:42.848Z,97222.03
2022-11-17T01:03:29.298Z,97213.50
2022-11-17T01:06:18.878Z,97210.06
2022-11-17T01:09:08.214Z,97218.66
2022-11-17T01:11:54.455Z,97198.00
2022-11-17T01:14:40.922Z,97213.19
2022-11-17T01:17:27.012Z,97199.25
2022-11-17T01:20:13.410Z,97205.28
2022-11-17T01:23:00.148Z,97210.38
2022-11-17T01:25:46.416Z,97202.81
2022-11-17T01:28:33.266Z,97193.69
2022-11-17T01:31:22.669Z,97186.03
2022-11-17T01:34:09.149Z,97168.91
2022-11-17T01:37:14.200Z,97179.13
2022-11-17T01:40:00.579Z,97182.06
2022-11-17T01:42:50.043Z,97177.09
2022-11-17T01:45:37.824Z,97149.91
2022-11-17T01:48:24.133Z,97157.75
2022-11-17T01:51:14.094Z,97160.91
2022-11-17T01:54:02.358Z,97158.44
2022-11-17T01:56:54.416Z,97133.69
2022-11-17T01:59:45.227Z,97121.59
2022-11-17T02:02:33.033Z,97103.63
2022-11-17T02:05:33.335Z,97090.75
2022-11-17T02:08:22.875Z,97095.84
2022-11-17T02:11:14.191Z,97085.66
2022-11-17T02:14:00.492Z,97090.47
2022-11-17T02:16:47.163Z,97086.88
2022-11-17T02:19:38.275Z,97082.28
2022-11-17T02:22:52.617Z,97072.84
2022-11-17T02:26:13.452Z,97066.75
2022-11-17T02:29:11.006Z,97059.84
2022-11-17T02:32:13.112Z,97065.00
2022-11-17T02:35:28.096Z,97054.56
2022-11-17T02:38:24.757Z,97052.84
2022-11-17T02:41:22.971Z,97037.38
2022-11-17T02:44:31.367Z,97026.38
2022-11-17T02:47:26.292Z,97013.00
2022-11-17T02:50:13.985Z,97017.97
2022-11-17T02:53:00.650Z,97027.44
2022-11-17T02:55:52.171Z,97024.63
2022-11-17T02:58:38.866Z,97022.56
2022-11-17T03:01:34.381Z,97025.25
2022-11-17T03:04:50.117Z,97037.94
2022-11-17T03:07:56.227Z,97067.88
2022-11-17T03:10:49.592Z,97073.88
2022-11-17T03:14:04.340Z,97077.41
2022-11-17T03:17:18.562Z,97062.97
2022-11-17T03:20:26.302Z,97056.09
2022-11-17T03:23:41.140Z,97046.56
2022-11-17T03:26:34.917Z,97004.44
2022-11-17T03:29:24.223Z,97022.44
2022-11-17T03:32:11.286Z,97016.66
2022-11-17T03:35:03.120Z,97018.41
2022-11-17T03:37:53.765Z,97026.16
2022-11-17T03:40:45.150Z,97020.34
2022-11-17T03:43:32.595Z,97007.34
2022-11-17T03:46:21.827Z,97002.09
2022-11-17T03:49:26.950Z,97008.63
2022-11-17T03:52:13.857Z,96992.84
2022-11-17T03:55:01.576Z,97003.13
2022-11-17T03:58:06.714Z,97005.59
2022-11-17T04:00:54.692Z,97001.06
2022-11-17T04:03:41.369Z,97006.44
2022-11-17T04:06:27.829Z,97001.28
2022-11-17T04:09:14.145Z,96997.69
2022-11-17T04:12:19.109Z,96999.31
2022-11-17T04:15:24.729Z,97005.16
2022-11-17T04:18:11.537Z,96988.09
2022-11-17T04:20:58.177Z,97002.31
2022-11-17T04:23:44.541Z,97020.44
2022-11-17T04:27:06.217Z,97015.28
2022-11-17T04:29:52.658Z,97022.28
2022-11-17T04:32:39.167Z,97015.28
2022-11-17T04:35:25.800Z,96999.81
2022-11-17T04:38:12.409Z,96996.66
2022-11-17T04:41:23.678Z,96996.13
2022-11-17T04:44:12.315Z,97002.28
2022-11-17T04:46:59.447Z,97002.91
2022-11-17T04:49:45.918Z,96999.50
2022-11-17T04:52:32.416Z,97016.59
2022-11-17T04:55:23.666Z,97000.50
2022-11-17T04:58:11.092Z,97004.75
2022-11-17T05:01:12.208Z,97003.78
2022-11-17T05:04:00.680Z,97000.22
2022-11-17T05:06:46.986Z,96999.06
2022-11-17T05:09:33.431Z,96930.66
2022-11-17T05:12:38.118Z,96985.88
2022-11-17T05:15:44.753Z,96984.00
2022-11-17T05:18:30.990Z,97003.00
2022-11-17T05:21:17.357Z,97003.50
2022-11-17T05:24:04.459Z,96985.66
2022-11-17T05:26:50.939Z,96990.59
2022-11-17T05:29:37.194Z,96980.50
2022-11-17T05:32:23.402Z,96985.25
2022-11-17T05:35:10.662Z,96990.50
2022-11-17T05:37:56.968Z,96985.91
2022-11-17T05:40:43.061Z,96983.41
2022-11-17T05:43:29.425Z,96996.59
2022-11-17T05:46:18.149Z,96987.09
2022-11-17T05:49:04.646Z,96981.63
2022-11-17T05:51:52.933Z,96978.50
2022-11-17T05:54:39.592Z,96981.97
2022-11-17T05:57:30.965Z,96984.41
2022-11-17T06:00:17.467Z,96983.50
2022-11-17T06:03:20.519Z,96983.34
2022-11-17T06:06:08.348Z,96982.53
2022-11-17T06:08:56.250Z,96992.69
2022-11-17T06:11:42.750Z,96989.22
2022-11-17T06:14:29.047Z,96978.97
2022-11-17T06:17:25.810Z,96987.56
2022-11-17T06:20:18.048Z,96997.09
2022-11-17T06:23:07.013Z,97004.97
2022-11-17T06:25:53.747Z,97005.22
2022-11-17T06:28:43.560Z,96973.19
2022-11-17T06:31:32.360Z,97009.06
2022-11-17T06:34:19.292Z,97021.94
2022-11-17T06:37:05.556Z,97018.59
2022-11-17T06:39:52.709Z,97025.59
2022-11-17T06:43:09.639Z,97037.44
2022-11-17T06:45:56.151Z,97025.34
2022-11-17T06:48:42.930Z,96908.38
2022-11-17T06:51:34.842Z,96996.06
2022-11-17T06:54:21.634Z,96969.81
2022-11-17T06:57:08.607Z,96976.94
2022-11-17T06:59:55.126Z,96966.34
2022-11-17T07:02:41.979Z,96996.16
2022-11-17T07:05:29.054Z,97011.00
2022-11-17T07:08:15.705Z,97011.22
2022-11-17T07:11:07.982Z,97001.84
2022-11-17T07:13:55.194Z,97004.38
2022-11-17T07:16:43.489Z,96990.59
2022-11-17T07:19:30.114Z,96985.97
2022-11-17T07:22:16.483Z,96998.63
2022-11-17T07:25:04.624Z,97009.41
2022-11-17T07:27:58.234Z,96997.66
2022-11-17T07:30:44.896Z,96992.19
2022-11-17T07:33:33.201Z,97013.56
2022-11-17T07:36:19.962Z,97014.59
2022-11-17T07:39:07.017Z,97007.44
2022-11-17T07:41:54.294Z,96999.00
2022-11-17T07:44:41.196Z,96989.53
2022-11-17T07:47:28.005Z,97010.38
2022-11-17T07:50:15.864Z,96973.09
2022-11-17T07:53:02.781Z,96990.97
2022-11-17T07:55:49.380Z,96983.88
2022-11-17T07:58:37.536Z,96968.72
2022-11-17T08:01:27.437Z,96986.88
2022-11-17T08:04:14.526Z,97002.06
2022-11-17T08:07:01.200Z,97002.06
2022-11-17T08:09:48.049Z,97008.56
2022-11-17T08:12:34.759Z,97007.47
2022-11-17T08:15:22.506Z,97006.03
2022-11-17T08:18:09.657Z,96988.34
2022-11-17T08:21:06.638Z,97000.03
2022-11-17T08:23:55.192Z,96992.81
2022-11-17T08:26:41.930Z,96987.63
2022-11-17T08:29:28.607Z,96998.91
2022-11-17T08:32:15.549Z,96999.72
2022-11-17T08:35:07.310Z,97000.75
2022-11-17T08:37:55.172Z,97003.19
2022-11-17T08:40:42.119Z,97003.94
2022-11-17T08:43:29.092Z,97000.06
2022-11-17T08:46:15.546Z,97007.34
2022-11-17T08:49:03.033Z,97001.09
2022-11-17T08:51:49.614Z,97006.97
2022-11-17T08:54:36.313Z,97010.91
2022-11-17T08:57:23.080Z,97014.81
2022-11-17T09:00:10.932Z,97016.72
2022-11-17T09:02:57.205Z,96952.69
2022-11-17T09:05:47.144Z,97021.25
2022-11-17T09:08:48.910Z,97038.59
2022-11-17T09:11:40.216Z,97038.53
2022-11-17T09:14:31.642Z,97035.47
2022-11-17T09:17:18.146Z,97026.13
2022-11-17T09:20:05.219Z,97036.28
2022-11-17T09:22:51.620Z,97042.81
2022-11-17T09:25:38.011Z,97041.03
2022-11-17T09:28:25.939Z,97018.38
2022-11-17T09:31:16.233Z,97046.25
2022-11-17T09:34:05.633Z,97051.22
2022-11-17T09:36:52.480Z,97048.50
2022-11-17T09:39:39.176Z,97060.66
2022-11-17T09:42:25.941Z,97068.69
2022-11-17T09:45:25.563Z,97073.72
2022-11-17T09:48:40.703Z,97073.88
2022-11-17T09:51:31.590Z,97058.25
2022-11-17T09:54:41.672Z,97066.88
2022-11-17T09:57:36.505Z,97065.19
2022-11-17T10:00:23.284Z,97066.66
2022-11-17T10:03:22.147Z,97081.97
2022-11-17T10:06:19.933Z,97078.91
2022-11-17T10:09:27.768Z,97077.00
2022-11-17T10:12:26.767Z,97080.66
2022-11-17T10:15:31.668Z,97073.69
2022-11-17T10:18:18.208Z,97071.00
2022-11-17T10:21:06.784Z,97073.47
2022-11-17T10:23:58.436Z,97062.59
2022-11-17T10:26:49.450Z,97068.56
2022-11-17T10:29:36.073Z,97068.25
2022-11-17T10:32:22.717Z,97060.41
2022-11-17T10:35:27.619Z,97069.06
2022-11-17T10:38:22.191Z,97068.41
2022-11-17T10:41:15.595Z,97071.03
2022-11-17T10:44:17.242Z,97065.16
2022-11-17T10:47:04.684Z,97069.84
2022-11-17T10:50:28.479Z,97065.41
2022-11-17T10:53:25.714Z,97057.63
2022-11-17T10:56:16.455Z,97064.88
2022-11-17T10:59:19.452Z,97071.56
2022-11-17T11:02:27.746Z,97023.38
2022-11-17T11:05:23.390Z,97077.94
2022-11-17T11:08:20.353Z,97074.44
2022-11-17T11:11:17.809Z,97064.50
2022-11-17T11:14:26.251Z,97045.97
2022-11-17T11:17:16.287Z,97045.03
2022-11-17T11:20:04.350Z,97057.84
2022-11-17T11:22:58.993Z,97054.94
2022-11-17T11:25:58.967Z,97058.56
2022-11-17T11:29:08.235Z,97058.69
2022-11-17T11:32:26.824Z,97060.50
2022-11-17T11:35:48.117Z,97068.78
2022-11-17T11:38:43.298Z,97070.41
2022-11-17T11:41:44.810Z,97075.56
2022-11-17T11:45:35.414Z,97066.69
2022-11-17T11:48:28.121Z,97091.78
2022-11-17T11:51:37.328Z,97072.88
2022-11-17T11:54:46.312Z,97067.13
2022-11-17T11:57:49.372Z,97073.16
2022-11-17T12:00:35.903Z,97066.97
2022-11-17T12:03:30.134Z,97069.66
2022-11-17T12:06:47.418Z,97063.59
2022-11-17T12:09:46.719Z,97074.28
2022-11-17T12:12:41.057Z,97055.75
2022-11-17T12:15:27.392Z,97079.50
2022-11-17T12:18:31.143Z,97049.69
2022-11-17T12:21:25.709Z,97065.84
2022-11-17T12:24:33.819Z,97068.34
2022-11-17T12:27:36.158Z,97069.19
2022-11-17T12:30:28.922Z,97081.13
2022-11-17T12:33:15.618Z,97075.78
2022-11-17T12:36:29.770Z,97082.69
2022-11-17T12:39:54.908Z,97076.25
2022-11-17T12:43:16.497Z,97067.94
2022-11-17T12:46:35.706Z,97064.44
2022-11-17T12:49:38.783Z,97056.19
2022-11-17T12:52:31.558Z,97069.66
2022-11-17T12:55:23.780Z,97071.75
2022-11-17T12:58:33.723Z,97040.50
2022-11-17T13:01:41.595Z,97050.47
2022-11-17T13:04:49.864Z,97064.56
2022-11-17T13:07:36.485Z,97058.19
2022-11-17T13:10:29.512Z,97055.28
2022-11-17T13:13:17.614Z,97068.47
2022-11-17T13:16:04.833Z,97059.66
2022-11-17T13:18:51.890Z,97059.56
2022-11-17T13:21:38.423Z,97062.78
2022-11-17T13:24:31.383Z,97060.56
2022-11-17T13:27:29.931Z,97063.34
2022-11-17T13:30:25.365Z,97065.19
2022-11-17T13:33:21.752Z,97054.00
2022-11-17T13:36:25.027Z,97061.50
2022-11-17T13:39:17.033Z,97059.66
2022-11-17T13:42:04.143Z,97075.44
2022-11-17T13:44:50.834Z,97077.25
2022-11-17T13:47:37.255Z,97078.56
2022-11-17T13:50:26.859Z,97084.38
2022-11-17T13:53:25.374Z,97091.72
2022-11-17T13:56:31.036Z,97097.22
2022-11-17T13:59:47.955Z,97102.44
2022-11-17T14:02:34.351Z,97079.34
2022-11-17T14:05:30.084Z,97091.59
2022-11-17T14:08:23.250Z,97108.44
2022-11-17T14:11:09.808Z,97093.31
2022-11-17T14:14:01.200Z,97091.13
2022-11-17T14:16:47.925Z,97088.56
2022-11-17T14:19:34.402Z,97094.53
2022-11-17T14:22:30.812Z,97094.47
2022-11-17T14:25:22.821Z,97093.03
2022-11-17T14:28:18.022Z,97084.53
2022-11-17T14:31:04.535Z,97092.38
2022-11-17T14:33:50.957Z,97077.31
2022-11-17T14:36:39.206Z,97086.38
2022-11-17T14:39:25.539Z,97081.13
2022-11-17T14:42:12.206Z,97091.25
2022-11-17T14:44:58.547Z,97090.88
2022-11-17T14:47:45.483Z,97096.31
2022-11-17T14:50:33.223Z,97092.50
2022-11-17T14:53:19.924Z,97090.09
2022-11-17T14:56:10.024Z,97103.53
2022-11-17T14:59:00.382Z,97099.38
2022-11-17T15:01:46.829Z,97100.84
2022-11-17T15:04:50.060Z,97092.94
2022-11-17T15:07:37.912Z,97076.81
2022-11-17T15:10:55.339Z,97085.47
2022-11-17T15:13:44.979Z,97074.72
2022-11-17T15:16:59.994Z,97074.22
2022-11-17T15:19:46.692Z,97076.53
2022-11-17T15:22:33.475Z,97073.72
2022-11-17T15:25:25.832Z,97069.03
2022-11-17T15:28:15.301Z,97064.97
2022-11-17T15:31:15.173Z,97080.28
2022-11-17T15:34:01.697Z,97059.50
2022-11-17T15:36:49.083Z,97074.72
2022-11-17T15:39:36.445Z,97054.69
2022-11-17T15:42:23.018Z,97057.16
2022-11-17T15:45:10.793Z,97073.63
2022-11-17T15:48:05.834Z,97079.84
2022-11-17T15:51:00.430Z,97080.69
2022-11-17T15:53:48.961Z,97087.09
2022-11-17T15:56:39.348Z,97097.94
2022-11-17T15:59:25.893Z,97099.38
2022-11-17T16:02:16.210Z,97095.94
2022-11-17T16:05:02.869Z,97089.16
2022-11-17T16:07:49.171Z,97074.41
2022-11-17T16:10:35.917Z,97084.94
2022-11-17T16:13:23.293Z,97092.78
2022-11-17T16:16:36.587Z,97103.31
2022-11-17T16:19:22.934Z,97099.75
2022-11-17T16:22:09.580Z,97095.75
2022-11-17T16:24:56.379Z,97106.34
2022-11-17T16:27:43.025Z,97110.22
2022-11-17T16:30:35.210Z,97102.09
2022-11-17T16:33:22.293Z,97085.84
2022-11-17T16:36:09.171Z,97089.78
2022-11-17T16:39:13.586Z,97090.44
2022-11-17T16:42:01.470Z,97085.69
2022-11-17T16:44:48.019Z,97077.00
2022-11-17T16:47:35.114Z,97087.13
2022-11-17T16:50:21.482Z,97065.56
2022-11-17T16:53:07.879Z,97078.56
2022-11-17T16:55:54.110Z,97063.22
2022-11-17T16:58:40.766Z,97074.78
2022-11-17T17:01:34.805Z,97079.41
2022-11-17T17:04:22.951Z,97077.88
2022-11-17T17:07:09.277Z,97073.94
2022-11-17T17:09:55.861Z,97085.25
2022-11-17T17:12:54.537Z,97073.56
2022-11-17T17:15:41.828Z,97073.69
2022-11-17T17:18:28.710Z,97087.22
2022-11-17T17:21:18.999Z,97099.06
2022-11-17T17:24:06.288Z,97092.88
2022-11-17T17:26:52.659Z,97101.44
2022-11-17T17:29:41.463Z,97103.88
2022-11-17T17:32:28.524Z,97102.00
2022-11-17T17:35:15.200Z,97107.34
2022-11-17T17:38:01.914Z,97113.28
2022-11-17T17:40:48.573Z,97111.44
2022-11-17T17:43:38.433Z,97108.03
2022-11-17T17:46:25.766Z,97107.16
2022-11-17T17:49:12.913Z,97109.88
2022-11-17T17:51:59.694Z,97112.84
2022-11-17T17:54:46.098Z,97115.44
2022-11-17T17:57:34.024Z,97098.47
2022-11-17T18:00:20.760Z,97093.47
2022-11-17T18:03:07.270Z,97097.78
2022-11-17T18:05:58.791Z,97109.78
2022-11-17T18:08:45.600Z,97119.91
2022-11-17T18:11:33.327Z,97130.84
2022-11-17T18:14:25.045Z,97134.97
2022-11-17T18:17:11.397Z,97135.94
2022-11-17T18:19:57.880Z,97103.63
2022-11-17T18:22:44.596Z,97116.97
2022-11-17T18:25:32.768Z,97123.78
2022-11-17T18:28:20.043Z,97133.41
2022-11-17T18:31:08.104Z,97133.72
2022-11-17T18:33:59.805Z,97135.19
2022-11-17T18:36:46.984Z,97138.81
2022-11-17T18:39:33.492Z,97140.56
2022-11-17T18:42:19.934Z,97158.13
2022-11-17T18:45:06.703Z,97153.13
2022-11-17T18:47:53.244Z,97147.53
2022-11-17T18:51:12.206Z,97164.06
2022-11-17T18:53:54.222Z,97160.59
2022-11-17T18:56:40.932Z,97171.81
2022-11-17T18:59:27.671Z,97154.59
2022-11-17T19:02:14.228Z,97149.38
2022-11-17T19:05:01.097Z,97146.97
2022-11-17T19:07:48.405Z,97154.72
2022-11-17T19:10:34.789Z,97169.94
2022-11-17T19:13:22.030Z,97172.69
2022-11-17T19:16:17.217Z,97172.78
2022-11-17T19:19:03.543Z,97179.84
2022-11-17T19:21:50.248Z,97185.97
2022-11-17T19:24:36.723Z,97203.00
2022-11-17T19:27:23.598Z,97228.69
2022-11-17T19:30:10.615Z,97205.97
2022-11-17T19:32:57.961Z,97195.69
2022-11-17T19:35:44.770Z,97196.41
2022-11-17T19:38:35.546Z,97203.25
2022-11-17T19:41:34.211Z,97161.38
2022-11-17T19:44:20.734Z,97169.88
2022-11-17T19:47:07.547Z,97159.75
2022-11-17T19:49:53.732Z,97152.97
2022-11-17T19:52:40.068Z,97155.91
2022-11-17T19:55:26.870Z,97150.91
2022-11-17T19:58:16.334Z,97161.22
2022-11-17T20:01:13.965Z,97183.34
2022-11-17T20:04:01.571Z,97168.69
2022-11-17T20:06:48.623Z,97171.16
2022-11-17T20:09:35.963Z,97181.66
2022-11-17T20:12:22.545Z,97182.56
2022-11-17T20:15:27.017Z,97195.41
2022-11-17T20:18:17.289Z,97181.28
2022-11-17T20:21:05.656Z,97193.16
2022-11-17T20:23:52.190Z,97192.06
2022-11-17T20:26:40.887Z,97195.81
2022-11-17T20:29:27.189Z,97194.19
2022-11-17T20:32:13.683Z,97196.03
2022-11-17T20:35:00.046Z,97193.72
2022-11-17T20:37:46.897Z,97205.00
2022-11-17T20:40:34.109Z,97202.72
2022-11-17T20:43:20.543Z,97218.19
2022-11-17T20:46:07.470Z,97196.88
2022-11-17T20:48:54.264Z,97220.00
2022-11-17T20:51:41.850Z,97231.25
2022-11-17T20:54:28.386Z,97221.25
2022-11-17T20:57:15.012Z,97239.88
2022-11-17T21:00:01.672Z,97234.13
2022-11-17T21:02:48.347Z,97243.38
2022-11-17T21:05:34.815Z,97217.31
2022-11-17T21:08:21.830Z,97238.63
2022-11-17T21:11:11.171Z,97240.19
2022-11-17T21:13:57.873Z,97148.78
2022-11-17T21:16:45.700Z,97237.22
2022-11-17T21:19:36.514Z,97247.69
2022-11-17T21:22:26.096Z,97236.50
2022-11-17T21:25:12.529Z,97246.03
2022-11-17T21:27:59.343Z,97241.88
2022-11-17T21:30:47.291Z,97236.56
2022-11-17T21:33:35.827Z,97229.59
2022-11-17T21:36:24.621Z,97233.47
2022-11-17T21:39:17.317Z,97233.66
2022-11-17T21:42:04.699Z,97228.56
2022-11-17T21:44:51.329Z,97247.53
2022-11-17T21:47:38.149Z,97239.41
2022-11-17T21:50:24.974Z,97247.88
2022-11-17T21:53:11.324Z,97260.91
2022-11-17T21:56:02.630Z,97189.66
2022-11-17T21:58:53.765Z,97263.28
2022-11-17T22:01:41.007Z,97261.53
2022-11-17T22:04:27.959Z,97252.91
2022-11-17T22:07:15.044Z,97243.66
2022-11-17T22:10:01.708Z,97241.13
2022-11-17T22:12:57.163Z,97256.44
2022-11-17T22:15:53.910Z,97245.63
2022-11-17T22:18:41.925Z,97243.63
2022-11-17T22:21:28.505Z,97260.63
2022-11-17T22:24:15.499Z,97261.75
2022-11-17T22:27:01.916Z,97258.19
2022-11-17T22:29:48.436Z,97256.28
2022-11-17T22:32:34.743Z,97259.69
2022-11-17T22:35:23.429Z,97262.22
2022-11-17T22:38:10.082Z,97269.16
2022-11-17T22:41:01.505Z,97259.81
2022-11-17T22:43:52.237Z,97246.38
2022-11-17T22:46:40.505Z,97237.22
2022-11-17T22:49:27.222Z,97246.56
2022-11-17T22:52:13.705Z,97260.97
2022-11-17T22:55:00.437Z,97260.38
2022-11-17T22:57:46.891Z,97253.63
2022-11-17T23:00:33.542Z,97264.06
2022-11-17T23:03:20.167Z,97268.47
2022-11-17T23:06:07.057Z,97254.25
2022-11-17T23:08:54.899Z,97274.56
2022-11-17T23:11:42.273Z,97275.41
2022-11-17T23:14:28.924Z,97270.34
2022-11-17T23:17:15.327Z,97270.91
2022-11-17T23:20:01.966Z,97269.22
2022-11-17T23:22:53.796Z,97265.31
2022-11-17T23:25:40.154Z,97270.25
2022-11-17T23:28:26.742Z,97255.84
2022-11-17T23:31:16.656Z,97261.78
2022-11-17T23:34:03.311Z,97252.59
2022-11-17T23:36:49.494Z,97255.16
2022-11-17T23:39:36.280Z,97265.34
2022-11-17T23:42:22.661Z,97249.09
2022-11-17T23:45:11.718Z,97258.63
2022-11-17T23:47:58.112Z,97272.41
2022-11-17T23:50:44.595Z,97246.59
2022-11-17T23:53:31.331Z,97253.31
2022-11-17T23:56:20.437Z,97258.47
2022-11-17T23:59:08.194Z,97258.59
